Terminal Aerodrome Forecast
Issued by NWS Blacksburg, VA

Home | Current Version | Previous Version | Text Only | Print | Product List | Glossary On
Versions: 1 2 3 4 5 6 7 8 9 10 11 12 13 14 15 16 17 18
000
FTUS41 KRNK 221723
TAFBLF
TAF
KBLF 221723Z 2218/2318 17008G18KT P6SM OVC080
     FM222200 18010G20KT P6SM VCSH SCT025 OVC050
     FM230200 17010G18KT 5SM -SHRA BR OVC035 WS020/19040KT
     FM230300 17011G20KT 3SM -SHRA BR OVC015 WS020/19045KT
      TEMPO 2303/2306 VRB20G35KT 1SM +SHRA BR OVC004
     FM231200 25011KT P6SM BKN018
     FM231500 26016G25KT P6SM BKN025=

USA.gov is the U.S. government's official web portal to all federal, state and local government web resources and services.